Prestatyn, United Kingdom
Current Conditions -  °F | °C
As of 6:20 AM on Wednesday 28 Jan 2015 (Local Time) from EGNR Reporting Station
Light Rain Light Rain  
Wind Chill: 54°   Ceiling: Unl
Heat Index: 54°   Visibility: 6mi
Dew Point: 46°   Wind: 26mph
Humidity: 77%   Direction: 240°WSW
Pressure: 29.5"   Gusts: 41mph
Location:  53.34°N, 3.41°W
Report Text: EGNR 280620Z 24023G36KT 9999 -RA FEW020 SCT040 12/08 Q0999
Loading
Personal Weather Stations






























Interactive Weather Map New forecast layout! Learn more

10-Day Weather Forecast

Advertisements
Track Severe Weather on mobile